sensor_id;sensor_type;location;lat;lon;timestamp;temperature;humidity
55711;DHT22;41612;51.994;5.880;2022-08-03T00:01:10;22.60;67.90
55711;DHT22;41612;51.994;5.880;2022-08-03T00:03:35;22.50;68.00
55711;DHT22;41612;51.994;5.880;2022-08-03T00:06:01;22.50;68.10
55711;DHT22;41612;51.994;5.880;2022-08-03T00:08:27;22.50;68.20
55711;DHT22;41612;51.994;5.880;2022-08-03T00:10:54;22.50;68.30
55711;DHT22;41612;51.994;5.880;2022-08-03T00:13:32;22.50;68.40
55711;DHT22;41612;51.994;5.880;2022-08-03T00:15:57;22.40;69.00
55711;DHT22;41612;51.994;5.880;2022-08-03T00:18:23;22.40;69.20
55711;DHT22;41612;51.994;5.880;2022-08-03T00:20:49;22.30;68.90
55711;DHT22;41612;51.994;5.880;2022-08-03T00:23:15;22.30;69.00
55711;DHT22;41612;51.994;5.880;2022-08-03T00:26:00;22.30;69.30
55711;DHT22;41612;51.994;5.880;2022-08-03T00:28:26;22.30;69.30
55711;DHT22;41612;51.994;5.880;2022-08-03T00:30:52;22.20;69.60
55711;DHT22;41612;51.994;5.880;2022-08-03T00:33:20;22.10;69.60
55711;DHT22;41612;51.994;5.880;2022-08-03T00:35:46;22.10;69.40
55711;DHT22;41612;51.994;5.880;2022-08-03T00:38:12;22.10;69.20
55711;DHT22;41612;51.994;5.880;2022-08-03T00:43:26;22.00;69.60
55711;DHT22;41612;51.994;5.880;2022-08-03T00:45:52;22.00;70.40
55711;DHT22;41612;51.994;5.880;2022-08-03T00:48:19;21.90;70.30
55711;DHT22;41612;51.994;5.880;2022-08-03T00:50:46;21.90;70.40
55711;DHT22;41612;51.994;5.880;2022-08-03T00:53:13;21.80;70.80
55711;DHT22;41612;51.994;5.880;2022-08-03T00:55:43;21.80;70.80
55711;DHT22;41612;51.994;5.880;2022-08-03T00:58:14;21.90;71.20
55711;DHT22;41612;51.994;5.880;2022-08-03T01:00:40;21.80;70.70
55711;DHT22;41612;51.994;5.880;2022-08-03T01:03:07;21.80;70.50
55711;DHT22;41612;51.994;5.880;2022-08-03T01:05:57;21.80;70.50
55711;DHT22;41612;51.994;5.880;2022-08-03T01:11:23;21.70;70.70
55711;DHT22;41612;51.994;5.880;2022-08-03T01:14:10;21.70;71.00
55711;DHT22;41612;51.994;5.880;2022-08-03T01:16:47;21.70;70.60
55711;DHT22;41612;51.994;5.880;2022-08-03T01:19:45;21.70;70.50
55711;DHT22;41612;51.994;5.880;2022-08-03T01:28:45;21.60;70.80
55711;DHT22;41612;51.994;5.880;2022-08-03T01:31:17;21.50;71.50
55711;DHT22;41612;51.994;5.880;2022-08-03T01:33:49;21.50;71.00
55711;DHT22;41612;51.994;5.880;2022-08-03T01:36:21;21.50;71.10
55711;DHT22;41612;51.994;5.880;2022-08-03T01:38:52;21.50;71.50
55711;DHT22;41612;51.994;5.880;2022-08-03T01:41:41;21.40;71.60
55711;DHT22;41612;51.994;5.880;2022-08-03T01:44:11;21.30;72.00
55711;DHT22;41612;51.994;5.880;2022-08-03T01:46:38;21.30;72.40
55711;DHT22;41612;51.994;5.880;2022-08-03T01:49:07;21.30;72.40
55711;DHT22;41612;51.994;5.880;2022-08-03T01:51:38;21.30;72.10
55711;DHT22;41612;51.994;5.880;2022-08-03T01:54:07;21.20;72.60
55711;DHT22;41612;51.994;5.880;2022-08-03T01:56:41;21.20;72.40
55711;DHT22;41612;51.994;5.880;2022-08-03T01:59:28;21.20;72.40
55711;DHT22;41612;51.994;5.880;2022-08-03T02:01:55;21.20;71.70
55711;DHT22;41612;51.994;5.880;2022-08-03T02:04:23;21.20;71.60
55711;DHT22;41612;51.994;5.880;2022-08-03T02:06:50;21.20;71.60
55711;DHT22;41612;51.994;5.880;2022-08-03T02:09:19;21.20;71.30
55711;DHT22;41612;51.994;5.880;2022-08-03T02:12:02;21.20;71.20
55711;DHT22;41612;51.994;5.880;2022-08-03T02:14:29;21.20;71.30
55711;DHT22;41612;51.994;5.880;2022-08-03T02:16:56;21.10;71.20
55711;DHT22;41612;51.994;5.880;2022-08-03T02:19:23;21.10;71.50
55711;DHT22;41612;51.994;5.880;2022-08-03T02:21:52;21.00;71.70
55711;DHT22;41612;51.994;5.880;2022-08-03T02:24:18;21.10;71.60
55711;DHT22;41612;51.994;5.880;2022-08-03T02:26:44;21.00;71.70
55711;DHT22;41612;51.994;5.880;2022-08-03T02:29:20;21.00;72.10
55711;DHT22;41612;51.994;5.880;2022-08-03T02:31:48;21.00;72.50
55711;DHT22;41612;51.994;5.880;2022-08-03T02:34:16;21.00;71.80
55711;DHT22;41612;51.994;5.880;2022-08-03T02:36:48;21.00;72.20
55711;DHT22;41612;51.994;5.880;2022-08-03T02:39:18;21.00;72.00
55711;DHT22;41612;51.994;5.880;2022-08-03T02:41:52;21.00;71.60
55711;DHT22;41612;51.994;5.880;2022-08-03T02:44:22;21.00;71.70
55711;DHT22;41612;51.994;5.880;2022-08-03T02:46:53;21.00;71.70
55711;DHT22;41612;51.994;5.880;2022-08-03T02:49:20;20.90;71.40
55711;DHT22;41612;51.994;5.880;2022-08-03T02:51:48;20.90;71.40
55711;DHT22;41612;51.994;5.880;2022-08-03T02:54:17;21.00;72.20
55711;DHT22;41612;51.994;5.880;2022-08-03T02:56:51;20.90;71.80
55711;DHT22;41612;51.994;5.880;2022-08-03T02:59:20;20.90;71.50
55711;DHT22;41612;51.994;5.880;2022-08-03T03:01:46;20.90;71.50
55711;DHT22;41612;51.994;5.880;2022-08-03T03:04:13;20.80;71.40
55711;DHT22;41612;51.994;5.880;2022-08-03T03:06:40;20.80;71.20
55711;DHT22;41612;51.994;5.880;2022-08-03T03:09:07;20.80;71.30
55711;DHT22;41612;51.994;5.880;2022-08-03T03:11:35;20.80;71.80
55711;DHT22;41612;51.994;5.880;2022-08-03T03:14:02;20.70;72.90
55711;DHT22;41612;51.994;5.880;2022-08-03T03:16:29;20.70;73.80
55711;DHT22;41612;51.994;5.880;2022-08-03T03:18:58;20.70;73.60
55711;DHT22;41612;51.994;5.880;2022-08-03T03:21:26;20.70;73.00
55711;DHT22;41612;51.994;5.880;2022-08-03T03:23:52;20.70;73.00
55711;DHT22;41612;51.994;5.880;2022-08-03T03:26:19;20.60;72.90
55711;DHT22;41612;51.994;5.880;2022-08-03T03:28:47;20.70;72.50
55711;DHT22;41612;51.994;5.880;2022-08-03T03:31:13;20.70;72.40
55711;DHT22;41612;51.994;5.880;2022-08-03T03:33:38;20.60;72.10
55711;DHT22;41612;51.994;5.880;2022-08-03T03:36:05;20.60;72.20
55711;DHT22;41612;51.994;5.880;2022-08-03T03:38:32;20.60;72.50
55711;DHT22;41612;51.994;5.880;2022-08-03T03:41:01;20.60;73.50
55711;DHT22;41612;51.994;5.880;2022-08-03T03:43:27;20.60;72.70
55711;DHT22;41612;51.994;5.880;2022-08-03T03:45:54;20.50;72.30
55711;DHT22;41612;51.994;5.880;2022-08-03T03:48:20;20.50;72.10
55711;DHT22;41612;51.994;5.880;2022-08-03T03:50:47;20.50;72.60
55711;DHT22;41612;51.994;5.880;2022-08-03T03:53:14;20.50;72.90
55711;DHT22;41612;51.994;5.880;2022-08-03T03:55:40;20.50;73.10
55711;DHT22;41612;51.994;5.880;2022-08-03T03:58:06;20.50;73.70
55711;DHT22;41612;51.994;5.880;2022-08-03T04:00:32;20.40;73.60
55711;DHT22;41612;51.994;5.880;2022-08-03T04:02:58;20.40;73.30
55711;DHT22;41612;51.994;5.880;2022-08-03T04:05:24;20.40;73.50
55711;DHT22;41612;51.994;5.880;2022-08-03T04:08:17;20.40;73.90
55711;DHT22;41612;51.994;5.880;2022-08-03T04:11:22;20.40;74.30
55711;DHT22;41612;51.994;5.880;2022-08-03T04:14:07;20.30;74.50
55711;DHT22;41612;51.994;5.880;2022-08-03T04:16:36;20.30;75.50
55711;DHT22;41612;51.994;5.880;2022-08-03T04:19:12;20.30;76.80
55711;DHT22;41612;51.994;5.880;2022-08-03T04:21:49;20.20;75.70
55711;DHT22;41612;51.994;5.880;2022-08-03T04:24:17;20.20;74.30
55711;DHT22;41612;51.994;5.880;2022-08-03T04:26:50;20.20;74.00
55711;DHT22;41612;51.994;5.880;2022-08-03T04:29:19;20.20;75.30
55711;DHT22;41612;51.994;5.880;2022-08-03T04:31:47;20.20;75.00
55711;DHT22;41612;51.994;5.880;2022-08-03T04:34:14;20.20;74.70
55711;DHT22;41612;51.994;5.880;2022-08-03T04:36:48;20.30;74.80
55711;DHT22;41612;51.994;5.880;2022-08-03T04:39:22;20.30;74.80
55711;DHT22;41612;51.994;5.880;2022-08-03T04:41:52;20.30;76.30
55711;DHT22;41612;51.994;5.880;2022-08-03T04:44:39;20.30;76.10
55711;DHT22;41612;51.994;5.880;2022-08-03T04:47:09;20.30;74.80
55711;DHT22;41612;51.994;5.880;2022-08-03T04:49:36;20.30;74.50
55711;DHT22;41612;51.994;5.880;2022-08-03T04:52:03;20.40;74.70
55711;DHT22;41612;51.994;5.880;2022-08-03T04:54:29;20.30;75.40
55711;DHT22;41612;51.994;5.880;2022-08-03T04:57:04;20.30;75.40
55711;DHT22;41612;51.994;5.880;2022-08-03T04:59:30;20.30;75.50
55711;DHT22;41612;51.994;5.880;2022-08-03T05:01:56;20.30;75.50
55711;DHT22;41612;51.994;5.880;2022-08-03T05:04:23;20.30;75.80
55711;DHT22;41612;51.994;5.880;2022-08-03T05:06:48;20.30;76.50
55711;DHT22;41612;51.994;5.880;2022-08-03T05:09:14;20.30;76.10
55711;DHT22;41612;51.994;5.880;2022-08-03T05:11:40;20.30;75.80
55711;DHT22;41612;51.994;5.880;2022-08-03T05:14:06;20.40;76.50
55711;DHT22;41612;51.994;5.880;2022-08-03T05:16:32;20.30;76.20
55711;DHT22;41612;51.994;5.880;2022-08-03T05:19:03;20.30;75.40
55711;DHT22;41612;51.994;5.880;2022-08-03T05:21:28;20.40;75.40
55711;DHT22;41612;51.994;5.880;2022-08-03T05:23:54;20.40;76.60
55711;DHT22;41612;51.994;5.880;2022-08-03T05:26:48;20.40;75.30
55711;DHT22;41612;51.994;5.880;2022-08-03T05:29:14;20.40;75.40
55711;DHT22;41612;51.994;5.880;2022-08-03T05:31:39;20.40;76.40
55711;DHT22;41612;51.994;5.880;2022-08-03T05:34:05;20.40;75.80
55711;DHT22;41612;51.994;5.880;2022-08-03T05:36:31;20.50;75.80
55711;DHT22;41612;51.994;5.880;2022-08-03T05:38:57;20.50;77.30
55711;DHT22;41612;51.994;5.880;2022-08-03T05:41:25;20.50;76.90
55711;DHT22;41612;51.994;5.880;2022-08-03T05:43:52;20.50;77.20
55711;DHT22;41612;51.994;5.880;2022-08-03T05:46:18;20.50;76.20
55711;DHT22;41612;51.994;5.880;2022-08-03T05:48:45;20.50;77.40
55711;DHT22;41612;51.994;5.880;2022-08-03T05:51:11;20.60;76.20
55711;DHT22;41612;51.994;5.880;2022-08-03T05:53:40;20.60;75.70
55711;DHT22;41612;51.994;5.880;2022-08-03T05:56:06;20.70;77.20
55711;DHT22;41612;51.994;5.880;2022-08-03T05:58:32;20.70;77.20
55711;DHT22;41612;51.994;5.880;2022-08-03T06:00:58;20.70;75.70
55711;DHT22;41612;51.994;5.880;2022-08-03T06:03:25;20.70;76.80
55711;DHT22;41612;51.994;5.880;2022-08-03T06:05:52;20.80;75.20
55711;DHT22;41612;51.994;5.880;2022-08-03T06:08:19;20.80;76.00
55711;DHT22;41612;51.994;5.880;2022-08-03T06:10:48;20.90;76.30
55711;DHT22;41612;51.994;5.880;2022-08-03T06:13:14;20.90;76.40
55711;DHT22;41612;51.994;5.880;2022-08-03T06:15:40;21.00;75.80
55711;DHT22;41612;51.994;5.880;2022-08-03T06:18:09;21.10;75.50
55711;DHT22;41612;51.994;5.880;2022-08-03T06:20:34;21.10;76.20
55711;DHT22;41612;51.994;5.880;2022-08-03T06:23:00;21.10;75.40
55711;DHT22;41612;51.994;5.880;2022-08-03T06:25:29;21.20;76.50
55711;DHT22;41612;51.994;5.880;2022-08-03T06:27:55;21.20;75.90
55711;DHT22;41612;51.994;5.880;2022-08-03T06:30:24;21.20;76.40
55711;DHT22;41612;51.994;5.880;2022-08-03T06:32:50;21.30;75.90
55711;DHT22;41612;51.994;5.880;2022-08-03T06:35:15;21.30;75.00
55711;DHT22;41612;51.994;5.880;2022-08-03T06:37:46;21.40;74.00
55711;DHT22;41612;51.994;5.880;2022-08-03T06:40:15;21.50;74.40
55711;DHT22;41612;51.994;5.880;2022-08-03T06:42:41;21.70;74.70
55711;DHT22;41612;51.994;5.880;2022-08-03T06:45:07;21.80;74.10
55711;DHT22;41612;51.994;5.880;2022-08-03T06:47:37;21.80;71.80
55711;DHT22;41612;51.994;5.880;2022-08-03T06:50:07;21.90;72.10
55711;DHT22;41612;51.994;5.880;2022-08-03T06:52:37;21.90;72.70
55711;DHT22;41612;51.994;5.880;2022-08-03T06:55:04;21.90;72.50
55711;DHT22;41612;51.994;5.880;2022-08-03T06:57:30;21.90;72.40
55711;DHT22;41612;51.994;5.880;2022-08-03T06:59:56;22.10;71.80
55711;DHT22;41612;51.994;5.880;2022-08-03T07:02:27;22.20;71.40
55711;DHT22;41612;51.994;5.880;2022-08-03T07:04:57;22.30;72.00
55711;DHT22;41612;51.994;5.880;2022-08-03T07:07:23;22.40;69.50
55711;DHT22;41612;51.994;5.880;2022-08-03T07:09:51;22.50;68.80
55711;DHT22;41612;51.994;5.880;2022-08-03T07:12:20;22.60;68.70
55711;DHT22;41612;51.994;5.880;2022-08-03T07:14:50;22.70;68.90
55711;DHT22;41612;51.994;5.880;2022-08-03T07:17:18;22.70;69.40
55711;DHT22;41612;51.994;5.880;2022-08-03T07:19:44;22.80;68.60
55711;DHT22;41612;51.994;5.880;2022-08-03T07:22:10;22.90;68.80
55711;DHT22;41612;51.994;5.880;2022-08-03T07:24:36;22.90;68.80
55711;DHT22;41612;51.994;5.880;2022-08-03T07:27:15;23.00;67.30
55711;DHT22;41612;51.994;5.880;2022-08-03T07:29:46;23.10;67.40
55711;DHT22;41612;51.994;5.880;2022-08-03T07:32:12;23.20;67.50
55711;DHT22;41612;51.994;5.880;2022-08-03T07:34:37;23.20;67.90
55711;DHT22;41612;51.994;5.880;2022-08-03T07:37:03;23.20;66.30
55711;DHT22;41612;51.994;5.880;2022-08-03T07:39:28;23.30;67.40
55711;DHT22;41612;51.994;5.880;2022-08-03T07:41:54;23.20;67.00
55711;DHT22;41612;51.994;5.880;2022-08-03T07:44:20;23.20;67.90
55711;DHT22;41612;51.994;5.880;2022-08-03T07:46:46;23.30;67.90
55711;DHT22;41612;51.994;5.880;2022-08-03T07:49:12;23.30;67.80
55711;DHT22;41612;51.994;5.880;2022-08-03T07:51:38;23.30;66.80
55711;DHT22;41612;51.994;5.880;2022-08-03T07:54:04;23.30;67.60
55711;DHT22;41612;51.994;5.880;2022-08-03T07:56:30;23.30;67.80
55711;DHT22;41612;51.994;5.880;2022-08-03T07:58:56;23.40;66.90
55711;DHT22;41612;51.994;5.880;2022-08-03T08:01:22;23.50;66.60
55711;DHT22;41612;51.994;5.880;2022-08-03T08:03:48;23.60;66.60
55711;DHT22;41612;51.994;5.880;2022-08-03T08:06:15;23.60;66.90
55711;DHT22;41612;51.994;5.880;2022-08-03T08:08:42;23.70;67.20
55711;DHT22;41612;51.994;5.880;2022-08-03T08:11:08;23.70;66.10
55711;DHT22;41612;51.994;5.880;2022-08-03T08:13:34;23.80;64.30
55711;DHT22;41612;51.994;5.880;2022-08-03T08:16:00;23.80;65.80
55711;DHT22;41612;51.994;5.880;2022-08-03T08:18:25;23.90;62.00
55711;DHT22;41612;51.994;5.880;2022-08-03T08:20:54;24.00;63.30
55711;DHT22;41612;51.994;5.880;2022-08-03T08:23:19;24.10;64.30
55711;DHT22;41612;51.994;5.880;2022-08-03T08:25:49;24.20;64.20
55711;DHT22;41612;51.994;5.880;2022-08-03T08:28:20;24.20;63.10
55711;DHT22;41612;51.994;5.880;2022-08-03T08:30:46;24.20;64.30
55711;DHT22;41612;51.994;5.880;2022-08-03T08:33:12;24.30;63.50
55711;DHT22;41612;51.994;5.880;2022-08-03T08:35:38;24.50;62.80
55711;DHT22;41612;51.994;5.880;2022-08-03T08:38:04;24.70;61.10
55711;DHT22;41612;51.994;5.880;2022-08-03T08:40:29;24.90;62.50
55711;DHT22;41612;51.994;5.880;2022-08-03T08:42:55;25.10;61.80
55711;DHT22;41612;51.994;5.880;2022-08-03T08:45:21;25.30;61.50
55711;DHT22;41612;51.994;5.880;2022-08-03T08:47:48;25.60;60.50
55711;DHT22;41612;51.994;5.880;2022-08-03T08:50:19;25.80;60.30
55711;DHT22;41612;51.994;5.880;2022-08-03T08:52:46;25.90;58.20
55711;DHT22;41612;51.994;5.880;2022-08-03T08:55:14;26.10;57.70
55711;DHT22;41612;51.994;5.880;2022-08-03T08:57:56;26.40;59.10
55711;DHT22;41612;51.994;5.880;2022-08-03T09:00:23;26.70;57.40
55711;DHT22;41612;51.994;5.880;2022-08-03T09:02:49;26.80;56.80
55711;DHT22;41612;51.994;5.880;2022-08-03T09:05:17;26.90;56.00
55711;DHT22;41612;51.994;5.880;2022-08-03T09:07:44;27.00;55.90
55711;DHT22;41612;51.994;5.880;2022-08-03T09:10:12;27.10;55.50
55711;DHT22;41612;51.994;5.880;2022-08-03T09:12:43;27.20;54.80
55711;DHT22;41612;51.994;5.880;2022-08-03T09:17:49;27.60;54.10
55711;DHT22;41612;51.994;5.880;2022-08-03T09:20:16;27.80;53.60
55711;DHT22;41612;51.994;5.880;2022-08-03T09:22:59;27.90;52.20
55711;DHT22;41612;51.994;5.880;2022-08-03T09:25:31;27.90;52.50
55711;DHT22;41612;51.994;5.880;2022-08-03T09:28:10;27.90;52.20
55711;DHT22;41612;51.994;5.880;2022-08-03T09:30:41;28.00;52.20
55711;DHT22;41612;51.994;5.880;2022-08-03T09:33:11;28.20;52.40
55711;DHT22;41612;51.994;5.880;2022-08-03T09:35:46;28.40;51.20
55711;DHT22;41612;51.994;5.880;2022-08-03T09:38:14;28.40;50.80
55711;DHT22;41612;51.994;5.880;2022-08-03T09:40:40;28.50;50.90
55711;DHT22;41612;51.994;5.880;2022-08-03T09:43:07;28.50;50.40
55711;DHT22;41612;51.994;5.880;2022-08-03T09:45:37;28.70;50.50
55711;DHT22;41612;51.994;5.880;2022-08-03T09:48:26;29.00;50.30
55711;DHT22;41612;51.994;5.880;2022-08-03T09:50:53;29.20;49.00
55711;DHT22;41612;51.994;5.880;2022-08-03T09:53:20;29.30;48.10
55711;DHT22;41612;51.994;5.880;2022-08-03T09:56:04;29.20;49.00
55711;DHT22;41612;51.994;5.880;2022-08-03T09:58:30;29.30;48.20
55711;DHT22;41612;51.994;5.880;2022-08-03T10:01:03;29.40;48.30
55711;DHT22;41612;51.994;5.880;2022-08-03T10:03:34;29.70;47.50
55711;DHT22;41612;51.994;5.880;2022-08-03T10:06:17;29.70;47.50
55711;DHT22;41612;51.994;5.880;2022-08-03T10:09:13;29.70;47.20
55711;DHT22;41612;51.994;5.880;2022-08-03T10:11:40;29.70;47.70
55711;DHT22;41612;51.994;5.880;2022-08-03T10:14:09;29.60;48.60
55711;DHT22;41612;51.994;5.880;2022-08-03T10:16:37;29.80;48.10
55711;DHT22;41612;51.994;5.880;2022-08-03T10:19:05;30.00;47.70
55711;DHT22;41612;51.994;5.880;2022-08-03T10:21:35;30.00;47.30
55711;DHT22;41612;51.994;5.880;2022-08-03T10:24:07;30.20;46.10
55711;DHT22;41612;51.994;5.880;2022-08-03T10:26:40;30.20;46.50
55711;DHT22;41612;51.994;5.880;2022-08-03T10:29:11;30.30;46.50
55711;DHT22;41612;51.994;5.880;2022-08-03T10:31:39;30.40;46.50
55711;DHT22;41612;51.994;5.880;2022-08-03T10:34:18;30.30;46.10
55711;DHT22;41612;51.994;5.880;2022-08-03T10:36:48;30.50;46.00
55711;DHT22;41612;51.994;5.880;2022-08-03T10:39:18;30.70;46.30
55711;DHT22;41612;51.994;5.880;2022-08-03T10:41:47;31.00;45.10
55711;DHT22;41612;51.994;5.880;2022-08-03T10:44:17;31.10;43.60
55711;DHT22;41612;51.994;5.880;2022-08-03T10:46:44;31.00;43.90
55711;DHT22;41612;51.994;5.880;2022-08-03T10:49:18;31.00;44.70
55711;DHT22;41612;51.994;5.880;2022-08-03T10:51:45;31.10;44.00
55711;DHT22;41612;51.994;5.880;2022-08-03T11:00:14;31.20;43.80
55711;DHT22;41612;51.994;5.880;2022-08-03T11:03:16;31.30;44.30
55711;DHT22;41612;51.994;5.880;2022-08-03T11:05:44;31.30;44.20
55711;DHT22;41612;51.994;5.880;2022-08-03T11:08:22;31.30;43.90
55711;DHT22;41612;51.994;5.880;2022-08-03T11:10:49;31.50;43.20
55711;DHT22;41612;51.994;5.880;2022-08-03T11:13:21;31.80;43.30
55711;DHT22;41612;51.994;5.880;2022-08-03T11:15:49;32.10;42.00
55711;DHT22;41612;51.994;5.880;2022-08-03T11:18:15;32.10;41.10
55711;DHT22;41612;51.994;5.880;2022-08-03T11:20:56;32.00;39.90
55711;DHT22;41612;51.994;5.880;2022-08-03T11:23:49;31.90;40.90
55711;DHT22;41612;51.994;5.880;2022-08-03T11:26:18;32.00;41.10
55711;DHT22;41612;51.994;5.880;2022-08-03T11:28:47;32.20;40.90
55711;DHT22;41612;51.994;5.880;2022-08-03T11:34:05;32.50;39.30
55711;DHT22;41612;51.994;5.880;2022-08-03T11:39:43;32.50;42.60
55711;DHT22;41612;51.994;5.880;2022-08-03T11:45:00;32.80;39.30
55711;DHT22;41612;51.994;5.880;2022-08-03T11:47:28;32.80;40.20
55711;DHT22;41612;51.994;5.880;2022-08-03T11:49:56;32.80;39.70
55711;DHT22;41612;51.994;5.880;2022-08-03T11:52:24;32.80;39.80
55711;DHT22;41612;51.994;5.880;2022-08-03T11:54:51;32.70;37.90
55711;DHT22;41612;51.994;5.880;2022-08-03T11:57:30;32.70;37.70
55711;DHT22;41612;51.994;5.880;2022-08-03T11:59:56;32.90;37.90
55711;DHT22;41612;51.994;5.880;2022-08-03T12:02:22;32.90;36.30
55711;DHT22;41612;51.994;5.880;2022-08-03T12:04:56;33.00;39.20
55711;DHT22;41612;51.994;5.880;2022-08-03T12:07:23;33.30;38.10
55711;DHT22;41612;51.994;5.880;2022-08-03T12:10:09;33.60;37.60
55711;DHT22;41612;51.994;5.880;2022-08-03T12:12:36;33.90;36.90
55711;DHT22;41612;51.994;5.880;2022-08-03T12:15:06;34.30;36.30
55711;DHT22;41612;51.994;5.880;2022-08-03T12:17:37;34.70;35.80
55711;DHT22;41612;51.994;5.880;2022-08-03T12:20:05;34.90;34.70
55711;DHT22;41612;51.994;5.880;2022-08-03T12:22:32;35.10;34.70
55711;DHT22;41612;51.994;5.880;2022-08-03T12:24:58;35.60;36.70
55711;DHT22;41612;51.994;5.880;2022-08-03T12:27:24;36.30;36.10
55711;DHT22;41612;51.994;5.880;2022-08-03T12:29:55;37.20;32.80
55711;DHT22;41612;51.994;5.880;2022-08-03T12:32:20;37.80;31.40
55711;DHT22;41612;51.994;5.880;2022-08-03T12:34:47;38.10;31.40
55711;DHT22;41612;51.994;5.880;2022-08-03T12:37:13;38.30;29.70
55711;DHT22;41612;51.994;5.880;2022-08-03T12:39:52;38.60;29.90
55711;DHT22;41612;51.994;5.880;2022-08-03T12:42:18;39.00;27.80
55711;DHT22;41612;51.994;5.880;2022-08-03T12:44:43;39.60;27.70
55711;DHT22;41612;51.994;5.880;2022-08-03T12:47:10;40.20;29.00
55711;DHT22;41612;51.994;5.880;2022-08-03T12:49:47;41.00;25.90
55711;DHT22;41612;51.994;5.880;2022-08-03T12:52:13;41.10;25.70
55711;DHT22;41612;51.994;5.880;2022-08-03T12:54:39;41.00;25.60
55711;DHT22;41612;51.994;5.880;2022-08-03T12:57:08;41.20;26.50
55711;DHT22;41612;51.994;5.880;2022-08-03T12:59:42;41.70;27.10
55711;DHT22;41612;51.994;5.880;2022-08-03T13:04:38;42.90;26.50
55711;DHT22;41612;51.994;5.880;2022-08-03T13:07:09;43.40;25.80
55711;DHT22;41612;51.994;5.880;2022-08-03T13:09:53;43.80;23.90
55711;DHT22;41612;51.994;5.880;2022-08-03T13:12:21;43.60;24.20
55711;DHT22;41612;51.994;5.880;2022-08-03T13:14:50;43.60;24.00
55711;DHT22;41612;51.994;5.880;2022-08-03T13:17:17;43.20;24.50
55711;DHT22;41612;51.994;5.880;2022-08-03T13:19:43;43.20;23.80
55711;DHT22;41612;51.994;5.880;2022-08-03T13:22:11;43.10;24.60
55711;DHT22;41612;51.994;5.880;2022-08-03T13:24:37;43.40;25.00
55711;DHT22;41612;51.994;5.880;2022-08-03T13:27:04;43.70;24.70
55711;DHT22;41612;51.994;5.880;2022-08-03T13:29:32;43.70;24.50
55711;DHT22;41612;51.994;5.880;2022-08-03T13:31:58;43.90;23.70
55711;DHT22;41612;51.994;5.880;2022-08-03T13:34:23;44.10;23.90
55711;DHT22;41612;51.994;5.880;2022-08-03T13:36:50;44.50;24.70
55711;DHT22;41612;51.994;5.880;2022-08-03T13:39:16;44.70;24.80
55711;DHT22;41612;51.994;5.880;2022-08-03T13:41:42;44.50;24.30
55711;DHT22;41612;51.994;5.880;2022-08-03T13:44:07;44.10;26.70
55711;DHT22;41612;51.994;5.880;2022-08-03T13:46:33;43.80;26.00
55711;DHT22;41612;51.994;5.880;2022-08-03T13:48:59;43.60;29.70
55711;DHT22;41612;51.994;5.880;2022-08-03T13:51:24;44.00;28.10
55711;DHT22;41612;51.994;5.880;2022-08-03T13:53:50;44.70;26.90
55711;DHT22;41612;51.994;5.880;2022-08-03T13:56:16;44.80;26.90
55711;DHT22;41612;51.994;5.880;2022-08-03T13:58:42;44.80;25.20
55711;DHT22;41612;51.994;5.880;2022-08-03T14:01:08;44.60;26.50
55711;DHT22;41612;51.994;5.880;2022-08-03T14:03:34;44.50;25.40
55711;DHT22;41612;51.994;5.880;2022-08-03T14:05:59;44.70;26.80
55711;DHT22;41612;51.994;5.880;2022-08-03T14:08:25;44.70;26.50
55711;DHT22;41612;51.994;5.880;2022-08-03T14:10:51;45.20;26.20
55711;DHT22;41612;51.994;5.880;2022-08-03T14:13:17;45.40;27.10
55711;DHT22;41612;51.994;5.880;2022-08-03T14:15:42;45.80;25.40
55711;DHT22;41612;51.994;5.880;2022-08-03T14:18:08;46.50;24.50
55711;DHT22;41612;51.994;5.880;2022-08-03T14:20:35;46.70;22.90
55711;DHT22;41612;51.994;5.880;2022-08-03T14:23:01;46.60;22.60
55711;DHT22;41612;51.994;5.880;2022-08-03T14:25:26;46.10;23.90
55711;DHT22;41612;51.994;5.880;2022-08-03T14:27:52;46.40;24.70
55711;DHT22;41612;51.994;5.880;2022-08-03T14:30:18;46.70;25.70
55711;DHT22;41612;51.994;5.880;2022-08-03T14:32:44;47.00;22.20
55711;DHT22;41612;51.994;5.880;2022-08-03T14:35:10;46.60;24.30
55711;DHT22;41612;51.994;5.880;2022-08-03T14:37:36;47.00;22.30
55711;DHT22;41612;51.994;5.880;2022-08-03T14:40:03;47.00;22.30
55711;DHT22;41612;51.994;5.880;2022-08-03T14:42:29;46.90;23.60
55711;DHT22;41612;51.994;5.880;2022-08-03T14:44:54;46.80;22.40
55711;DHT22;41612;51.994;5.880;2022-08-03T14:47:20;46.60;23.10
55711;DHT22;41612;51.994;5.880;2022-08-03T14:49:46;46.50;25.90
55711;DHT22;41612;51.994;5.880;2022-08-03T14:52:11;46.90;23.40
55711;DHT22;41612;51.994;5.880;2022-08-03T14:54:37;47.00;23.10
55711;DHT22;41612;51.994;5.880;2022-08-03T14:57:03;46.90;22.90
55711;DHT22;41612;51.994;5.880;2022-08-03T14:59:28;47.30;23.90
55711;DHT22;41612;51.994;5.880;2022-08-03T15:01:54;47.50;22.30
55711;DHT22;41612;51.994;5.880;2022-08-03T15:04:20;47.30;22.50
55711;DHT22;41612;51.994;5.880;2022-08-03T15:06:45;47.60;23.30
55711;DHT22;41612;51.994;5.880;2022-08-03T15:09:11;47.60;22.80
55711;DHT22;41612;51.994;5.880;2022-08-03T15:11:37;47.90;24.10
55711;DHT22;41612;51.994;5.880;2022-08-03T15:14:03;48.10;22.90
55711;DHT22;41612;51.994;5.880;2022-08-03T15:16:28;47.80;23.90
55711;DHT22;41612;51.994;5.880;2022-08-03T15:18:54;47.90;23.80
55711;DHT22;41612;51.994;5.880;2022-08-03T15:21:20;48.10;25.40
55711;DHT22;41612;51.994;5.880;2022-08-03T15:23:45;47.90;21.70
55711;DHT22;41612;51.994;5.880;2022-08-03T15:26:11;47.60;22.40
55711;DHT22;41612;51.994;5.880;2022-08-03T15:28:37;47.60;22.50
55711;DHT22;41612;51.994;5.880;2022-08-03T15:31:03;47.20;22.50
55711;DHT22;41612;51.994;5.880;2022-08-03T15:33:32;47.00;23.90
55711;DHT22;41612;51.994;5.880;2022-08-03T15:35:57;47.20;25.10
55711;DHT22;41612;51.994;5.880;2022-08-03T15:38:24;47.70;22.80
55711;DHT22;41612;51.994;5.880;2022-08-03T15:40:50;48.10;25.20
55711;DHT22;41612;51.994;5.880;2022-08-03T15:43:19;48.40;24.80
55711;DHT22;41612;51.994;5.880;2022-08-03T15:45:45;48.70;22.60
55711;DHT22;41612;51.994;5.880;2022-08-03T15:48:11;48.70;23.20
55711;DHT22;41612;51.994;5.880;2022-08-03T15:50:36;48.80;23.50
55711;DHT22;41612;51.994;5.880;2022-08-03T15:53:03;48.80;21.90
55711;DHT22;41612;51.994;5.880;2022-08-03T15:55:29;48.70;21.50
55711;DHT22;41612;51.994;5.880;2022-08-03T15:57:55;48.30;21.10
55711;DHT22;41612;51.994;5.880;2022-08-03T16:00:21;47.80;21.60
55711;DHT22;41612;51.994;5.880;2022-08-03T16:02:47;47.50;23.70
55711;DHT22;41612;51.994;5.880;2022-08-03T16:05:12;47.30;22.60
55711;DHT22;41612;51.994;5.880;2022-08-03T16:07:38;47.30;22.70
55711;DHT22;41612;51.994;5.880;2022-08-03T16:10:17;47.20;22.80
55711;DHT22;41612;51.994;5.880;2022-08-03T16:12:43;46.90;24.40